Latest Weather Observations for Sheoaks

IDV60801

Issued at 6:32 pm EDT Tuesday 17 October 2017 (issued every 30 minutes, with the page automatically refreshed every 10 minutes)

About weather observations | Map of weather stations | Latest weather observations for VIC | Other Formats
Station Details ID: 087168 Name: SHEOAKS Lat: -37.91 Lon: 144.13 Height: 236.7 m
Data from the previous 72 hours. | See also: Recent months at Sheoaks
Date/Time
EDT
Temp
°C
App
Temp
°C
Dew
Point
°C
Rel
Hum
%
Delta-T
°C
Wind Press
QNH
hPa
Press
MSL
hPa
Rain since
9am
mm
Dir  Spd
km/h
Gust
km/h
Spd
kts
Gust
kts
17/06:30pm 27.0 25.0 6.9 28 10.7 NNW 7 11 4 6 1020.5 1020.4 0.0
17/06:00pm 28.1 25.5 6.2 25 11.6 NW 9 19 5 10 1020.5 1020.4 0.0
17/05:30pm 28.3 25.0 6.4 25 11.7 WNW 13 20 7 11 1020.6 1020.5 0.0
17/05:00pm 28.3 26.0 7.5 27 11.3 N 9 24 5 13 1020.7 1020.6 0.0
17/04:30pm 28.3 24.2 4.6 22 12.3 NW 15 24 8 13 1020.6 1020.5 0.0
17/04:00pm 28.6 25.2 6.1 24 11.9 NW 13 22 7 12 1020.7 1020.6 0.0
17/03:30pm 28.4 25.8 5.9 24 11.9 NW 9 19 5 10 1021.0 1020.9 0.0
17/03:00pm 28.1 24.0 4.4 22 12.2 NW 15 26 8 14 1021.3 1021.2 0.0
17/02:30pm 28.4 24.7 4.6 22 12.3 NW 13 24 7 13 1021.6 1021.5 0.0
17/02:00pm 27.9 23.7 3.6 21 12.3 NNW 15 28 8 15 1021.8 1021.8 0.0
17/01:30pm 28.0 23.0 3.7 21 12.3 NNW 19 30 10 16 1021.9 1021.9 0.0
17/01:00pm 27.6 23.4 5.8 25 11.4 NW 17 30 9 16 1022.1 1022.1 0.0
17/12:30pm 27.3 23.5 5.6 25 11.3 NW 15 24 8 13 1022.4 1022.4 0.0
17/12:00pm 27.0 23.1 5.3 25 11.2 N 15 24 8 13 1022.6 1022.6 0.0
17/11:30am 26.5 22.9 4.9 25 11.1 NNW 13 24 7 13 1022.8 1022.8 0.0
17/11:00am 26.1 22.8 6.2 28 10.4 N 13 20 7 11 1022.9 1022.9 0.0
17/10:30am 24.8 21.9 8.3 35 8.9 N 13 19 7 10 1022.9 1022.9 0.0
17/10:00am 23.6 20.9 8.8 39 8.0 N 13 17 7 9 1023.0 1023.0 0.0
17/09:30am 22.8 19.6 8.5 40 7.7 N 15 20 8 11 1023.0 1023.0 0.0
17/09:00am 21.5 18.7 8.4 43 6.9 N 13 20 7 11 1022.8 1022.8 0.0
17/08:30am 19.9 17.0 8.3 47 6.1 N 13 19 7 10 1022.7 1022.7 0.0
17/08:00am 19.2 15.0 7.3 46 6.1 N 19 28 10 15 1022.2 1022.2 0.0
17/07:30am 17.1 12.2 6.9 51 5.1 N 22 28 12 15 1022.0 1022.0 0.0
17/07:00am 15.7 11.3 7.2 57 4.2 N 20 28 11 15 1021.8 1021.8 0.0
17/06:30am 14.8 11.8 7.6 62 3.6 N 13 19 7 10 1021.6 1021.5 0.0
17/06:00am 14.3 11.7 7.6 64 3.3 N 11 15 6 8 1021.6 1021.5 0.0
17/05:30am 14.2 11.3 8.2 67 3.0 NNW 13 20 7 11 1021.5 1021.4 0.0
17/05:00am 14.7 11.2 8.6 67 3.1 N 17 20 9 11 1021.5 1021.4 0.0
17/04:30am 14.9 11.7 8.6 66 3.2 N 15 19 8 10 1021.5 1021.4 0.0
17/04:00am 15.4 12.3 8.9 65 3.3 N 15 19 8 10 1021.6 1021.5 0.0
17/03:30am 15.3 11.9 9.0 66 3.3 N 17 20 9 11 1021.7 1021.6 0.0
17/03:00am 15.0 12.0 9.1 68 3.0 N 15 22 8 12 1021.6 1021.5 0.0
17/02:30am 14.0 11.6 10.0 77 2.1 N 13 19 7 10 1021.9 1021.9 0.0
17/02:00am 12.2 10.5 9.9 86 1.2 NNW 9 13 5 7 1022.3 1022.3 0.0
17/01:30am 12.1 10.7 9.7 85 1.2 N 7 9 4 5 1022.9 1022.9 0.0
17/01:00am 11.8 10.4 9.5 86 1.2 NNW 7 9 4 5 1023.1 1023.1 0.0
17/12:30am 12.5 11.3 10.2 86 1.2 NNW 7 9 4 5 1023.4 1023.4 0.0
17/12:00am 12.5 10.9 10.2 86 1.2 N 9 9 5 5 1023.5 1023.5 0.0
 
Date/Time
EDT
Temp
°C
App
Temp
°C
Dew
Point
°C
Rel
Hum
%
Delta-T
°C
Wind Press
QNH
hPa
Press
MSL
hPa
Rain since
9am
mm
Dir  Spd
km/h
Gust
km/h
Spd
kts
Gust
kts
16/11:30pm 13.0 11.9 10.5 85 1.3 N 7 9 4 5 1023.8 1023.8 0.0
16/11:00pm 13.2 12.1 10.7 85 1.3 N 7 7 4 4 1023.9 1023.9 0.0
16/10:30pm 14.4 14.1 11.4 82 1.6 NNE 4 6 2 3 1023.8 1023.8 0.0
16/10:00pm 16.4 15.9 12.2 76 2.3 ENE 6 6 3 3 1023.7 1023.7 0.0
16/09:30pm 15.0 14.7 11.4 79 2.0 ENE 4 6 2 3 1023.5 1023.5 0.0
16/09:00pm 15.3 14.1 11.5 78 2.1 ESE 9 11 5 6 1023.6 1023.6 0.0
16/08:30pm 16.6 14.8 10.9 69 3.1 ESE 11 15 6 8 1023.3 1023.3 0.0
16/08:00pm 18.6 17.1 10.7 60 4.3 ESE 9 13 5 7 1022.9 1022.9 0.0
16/07:30pm 19.3 17.6 11.1 59 4.5 SE 11 13 6 7 1022.6 1022.6 0.0
16/07:00pm 21.6 20.2 12.2 55 5.3 ESE 11 15 6 8 1022.5 1022.5 0.0
16/06:30pm 23.0 21.3 12.3 51 6.1 ESE 13 17 7 9 1022.4 1022.4 0.0
16/06:00pm 24.0 22.5 12.0 47 6.9 SE 11 19 6 10 1022.3 1022.3 0.0
16/05:30pm 24.8 23.9 12.7 47 7.1 ESE 9 13 5 7 1022.1 1022.1 0.0
16/05:00pm 24.5 22.9 12.8 48 6.8 ESE 13 17 7 9 1022.1 1022.1 0.0
16/04:30pm 25.8 24.7 13.0 45 7.5 ESE 11 15 6 8 1022.1 1022.1 0.0
16/04:00pm 25.6 24.9 13.1 46 7.3 SSE 9 15 5 8 1022.3 1022.3 0.0
16/03:30pm 25.8 25.0 13.0 45 7.5 ESE 9 13 5 7 1022.5 1022.5 0.0
16/03:00pm 25.4 24.9 13.9 49 6.8 SE 9 15 5 8 1022.8 1022.8 0.0
16/02:30pm 25.0 24.7 13.2 48 6.9 S 7 13 4 7 1023.2 1023.2 0.0
16/02:00pm 24.5 24.0 12.5 47 6.9 SE 7 13 4 7 1023.3 1023.3 0.0
16/01:30pm 24.3 23.1 12.9 49 6.7 S 11 19 6 10 1023.6 1023.6 0.0
16/01:00pm 23.8 23.2 13.6 52 6.0 SE 9 17 5 9 1023.9 1023.9 0.0
16/12:30pm 23.0 22.1 13.8 56 5.4 SE 11 15 6 8 1024.0 1024.0 0.0
16/12:00pm 21.0 20.3 13.2 61 4.5 SSE 9 13 5 7 1024.4 1024.4 0.0
16/11:30am 19.8 19.5 13.3 66 3.7 SSE 7 11 4 6 1024.7 1024.7 0.0
16/11:00am 17.8 17.2 12.3 70 3.1 SE 7 9 4 5 1025.2 1025.1 0.0
16/10:30am 16.5 16.1 13.0 80 2.0 SE 7 11 4 6 1025.4 1025.4 0.0
16/10:00am 14.3 14.2 14.0 98 0.2 SE 7 9 4 5 1025.4 1025.4 0.0
16/09:30am 12.1 12.0 12.1 100 0.0 SSE 4 6 2 3 1025.4 1025.4 0.0
16/09:00am 11.2 11.6 11.2 100 0.0 CALM 0 2 0 1 1025.4 1025.4 0.0
16/08:30am 10.1 10.2 10.1 100 0.0 CALM 0 2 0 1 1025.3 1025.2 0.0
16/08:00am 9.5 8.7 9.5 100 0.0 ESE 4 6 2 3 1025.2 1025.1 0.0
16/07:30am 9.2 8.3 9.2 100 0.0 ESE 4 6 2 3 1025.0 1024.9 0.0
16/07:00am 8.2 7.4 8.1 99 0.0 ENE 2 4 1 2 1024.5 1024.5 0.0
16/06:30am 8.8 7.4 8.7 99 0.0 ENE 6 7 3 4 1024.2 1024.2 0.0
16/06:00am 8.9 7.5 8.8 99 0.0 ENE 6 7 3 4 1024.3 1024.3 0.0
16/05:30am 8.9 7.3 8.6 98 0.1 E 7 9 4 5 1024.2 1024.2 0.0
16/05:00am 8.9 7.3 8.6 98 0.1 ENE 7 9 4 5 1024.1 1024.1 0.0
16/04:30am 9.1 8.1 8.8 98 0.1 E 4 6 2 3 1024.2 1024.2 0.0
16/04:00am 9.0 7.5 8.6 97 0.2 NE 6 7 3 4 1024.1 1024.1 0.0
16/03:30am 9.3 6.9 8.8 97 0.2 NNE 11 13 6 7 1024.3 1024.3 0.0
16/03:00am 9.4 7.5 8.9 97 0.2 NE 9 11 5 6 1024.5 1024.5 0.0
16/02:30am 9.7 8.2 9.2 97 0.3 NE 7 11 4 6 1024.7 1024.7 0.0
16/02:00am 10.0 8.2 9.5 97 0.3 ENE 9 13 5 7 1025.0 1024.9 0.0
16/01:30am 10.0 8.2 9.5 97 0.3 ENE 9 13 5 7 1025.4 1025.4 0.0
16/01:00am 10.3 9.0 9.8 97 0.3 ENE 7 9 4 5 1025.5 1025.5 0.0
16/12:30am 10.3 8.9 9.7 96 0.3 ENE 7 11 4 6 1025.5 1025.5 0.0
16/12:00am 10.3 8.6 9.7 96 0.3 E 9 13 5 7 1025.6 1025.6 0.0
 
Date/Time
EDT
Temp
°C
App
Temp
°C
Dew
Point
°C
Rel
Hum
%
Delta-T
°C
Wind Press
QNH
hPa
Press
MSL
hPa
Rain since
9am
mm
Dir  Spd
km/h
Gust
km/h
Spd
kts
Gust
kts
15/11:30pm 10.4 8.7 9.8 96 0.3 E 9 13 5 7 1025.6 1025.6 0.0
15/11:00pm 10.3 8.9 9.5 95 0.4 E 7 9 4 5 1025.5 1025.5 0.0
15/10:30pm 10.1 8.6 9.2 94 0.5 E 7 11 4 6 1025.7 1025.7 0.0
15/10:00pm 9.6 7.9 8.5 93 0.5 E 7 9 4 5 1025.7 1025.7 0.0
15/09:30pm 9.8 8.2 8.6 92 0.6 E 7 9 4 5 1025.8 1025.8 0.0
15/09:00pm 9.9 7.8 8.3 90 0.8 ESE 9 9 5 5 1025.7 1025.7 0.0
15/08:30pm 10.5 8.4 8.4 87 1.0 ESE 9 13 5 7 1025.3 1025.2 0.0
15/08:00pm 11.1 8.6 8.3 83 1.4 ESE 11 13 6 7 1025.1 1025.0 0.0
15/07:30pm 12.4 10.0 8.5 77 2.0 SE 11 15 6 8 1025.0 1024.9 0.0
15/07:00pm 13.8 10.9 8.2 69 2.8 SE 13 17 7 9 1024.6 1024.6 0.0
15/06:30pm 15.1 12.3 8.6 65 3.3 SE 13 19 7 10 1024.4 1024.4 0.0
15/06:00pm 16.0 13.2 8.7 62 3.8 SE 13 17 7 9 1024.4 1024.4 0.0
15/05:30pm 16.3 12.9 9.0 62 3.8 SE 17 24 9 13 1024.3 1024.3 0.0
15/05:00pm 17.3 14.0 9.7 61 4.0 ESE 17 26 9 14 1024.1 1024.1 0.0
15/04:30pm 17.5 13.8 9.4 59 4.3 SE 19 24 10 13 1024.1 1024.1 0.0
15/04:00pm 18.2 14.9 9.5 57 4.6 SE 17 26 9 14 1024.1 1024.1 0.0
15/03:30pm 18.7 15.1 9.8 56 4.8 SE 19 26 10 14 1024.1 1024.1 0.0
15/03:00pm 18.4 15.4 9.2 55 4.9 SE 15 24 8 13 1024.3 1024.3 0.0
15/02:30pm 19.2 16.7 9.7 54 5.1 SE 13 22 7 12 1024.3 1024.3 0.0
15/02:00pm 18.9 15.9 9.4 54 5.0 SSE 15 20 8 11 1024.3 1024.3 0.0
15/01:30pm 18.5 15.8 9.0 54 5.0 SE 13 20 7 11 1024.4 1024.4 0.0
15/01:00pm 18.0 15.6 8.6 54 4.9 ESE 11 17 6 9 1024.5 1024.5 0.0
15/12:30pm 17.2 15.1 8.4 56 4.6 ESE 9 17 5 9 1025.1 1025.0 0.0
15/12:00pm 16.7 14.1 7.6 55 4.6 E 11 17 6 9 1025.3 1025.2 0.0
15/11:30am 15.7 13.4 7.5 58 4.1 ESE 9 17 5 9 1025.6 1025.6 0.0
15/11:00am 15.0 12.7 7.5 61 3.7 ESE 9 17 5 9 1025.8 1025.8 0.0
15/10:30am 14.6 12.6 8.5 67 3.1 ESE 9 15 5 8 1025.9 1025.9 0.0
15/10:00am 13.1 11.5 8.6 74 2.3 SE 7 13 4 7 1026.0 1026.0 0.0
15/09:30am 11.9 10.4 8.6 80 1.7 SE 6 9 3 5 1026.0 1026.0 0.0
15/09:00am 11.3 11.1 10.5 95 0.4 E 2 6 1 3 1025.9 1025.9 0.0
15/08:30am 7.2 5.7 6.8 97 0.2 NNW 4 4 2 2 1026.1 1026.1 0.0
15/08:00am 4.4 1.8 4.0 97 0.2 N 7 9 4 5 1025.9 1025.9 0.0
15/07:30am 2.6 -0.8 2.0 96 0.2 N 9 9 5 5 1025.5 1025.5 0.0
15/07:00am 1.8 -1.7 1.2 96 0.2 N 9 9 5 5 1025.1 1025.0 0.0
15/06:30am 1.9 -1.6 1.3 96 0.2 NNW 9 9 5 5 1024.5 1024.5 0.0
15/06:00am 1.9 -1.6 1.3 96 0.2 N 9 11 5 6 1024.4 1024.4 0.0
15/05:30am 2.2 -1.2 1.6 96 0.2 N 9 9 5 5 1024.2 1024.2 0.0
15/05:00am 2.1 -1.4 1.4 95 0.3 N 9 9 5 5 1024.1 1024.1 0.0
15/04:30am 2.4 -1.0 1.7 95 0.3 N 9 9 5 5 1024.1 1024.1 0.0
15/04:00am 3.0 -0.3 2.3 95 0.3 NNW 9 11 5 6 1024.0 1024.0 0.0
15/03:30am 2.9 -0.4 2.2 95 0.3 N 9 11 5 6 1024.0 1024.0 0.0
15/03:00am 3.1 -0.2 2.2 94 0.4 N 9 9 5 5 1024.3 1024.3 0.0
15/02:30am 3.4 0.1 2.5 94 0.4 N 9 11 5 6 1024.5 1024.5 0.0
15/02:00am 3.6 0.7 2.7 94 0.4 N 7 9 4 5 1024.7 1024.7 0.0
15/01:30am 3.6 0.3 2.6 93 0.4 N 9 9 5 5 1025.0 1024.9 0.0
15/01:00am 4.1 1.3 3.1 93 0.4 N 7 7 4 4 1025.2 1025.1 0.0
15/12:30am 4.4 1.2 3.2 92 0.5 N 9 9 5 5 1025.3 1025.2 0.0
15/12:00am 4.8 2.3 3.5 91 0.5 N 6 7 3 4 1025.2 1025.1 0.0
 
Date/Time
EDT
Temp
°C
App
Temp
°C
Dew
Point
°C
Rel
Hum
%
Delta-T
°C
Wind Press
QNH
hPa
Press
MSL
hPa
Rain since
9am
mm
Dir  Spd
km/h
Gust
km/h
Spd
kts
Gust
kts
14/11:30pm 5.1 2.6 3.6 90 0.6 N 6 6 3 3 1025.3 1025.2 0.0
14/11:00pm 5.9 3.5 4.2 89 0.7 NE 6 6 3 3 1025.3 1025.2 0.0
14/10:30pm 6.4 4.0 4.2 86 1.0 NNE 6 6 3 3 1025.5 1025.5 0.0
14/10:00pm 8.2 6.7 5.1 81 1.4 E 2 4 1 2 1025.6 1025.6 0.0
14/09:30pm 8.2 6.3 5.1 81 1.4 ESE 4 6 2 3 1025.7 1025.7 0.0
14/09:00pm 8.1 5.6 4.9 80 1.4 ESE 7 9 4 5 1025.6 1025.6 0.0
14/08:30pm 9.3 6.6 5.5 77 1.7 ESE 9 11 5 6 1025.4 1025.4 0.0
14/08:00pm 10.0 7.3 5.4 73 2.1 ESE 9 15 5 8 1025.2 1025.1 0.0
14/07:30pm 11.0 7.5 5.5 69 2.6 ESE 13 17 7 9 1025.2 1025.1 0.0
14/07:00pm 12.5 9.1 6.1 65 3.0 ESE 13 20 7 11 1024.7 1024.7 0.0

Other Formats:

Comma delimited format used in spreadsheet applications
http://www.bom.gov.au/fwo/IDV60801/IDV60801.94863.axf

JavaScript Object Notation format (JSON) in row-major order
http://www.bom.gov.au/fwo/IDV60801/IDV60801.94863.json